createdAt,value
2022-09-17T00:01:41.581Z,12.18
2022-09-17T00:04:10.783Z,12.07
2022-09-17T00:06:38.628Z,12.12
2022-09-17T00:09:07.988Z,12.12
2022-09-17T00:11:38.004Z,12.09
2022-09-17T00:14:09.164Z,12.07
2022-09-17T00:16:38.599Z,12.06
2022-09-17T00:19:11.201Z,12.08
2022-09-17T00:21:38.893Z,12.16
2022-09-17T00:24:07.957Z,12.24
2022-09-17T00:26:36.663Z,12.25
2022-09-17T00:29:05.763Z,12.11
2022-09-17T00:31:33.587Z,11.96
2022-09-17T00:34:03.595Z,11.96
2022-09-17T00:36:35.072Z,12.08
2022-09-17T00:39:04.312Z,12.09
2022-09-17T00:41:33.764Z,12.07
2022-09-17T00:44:22.484Z,12.04
2022-09-17T00:46:53.302Z,12.12
2022-09-17T00:49:27.680Z,12.00
2022-09-17T00:52:00.869Z,11.84
2022-09-17T00:54:29.204Z,11.80
2022-09-17T00:56:58.124Z,11.74
2022-09-17T00:59:26.508Z,11.73
2022-09-17T01:01:57.802Z,11.71
2022-09-17T01:04:28.340Z,11.70
2022-09-17T01:07:06.959Z,11.67
2022-09-17T01:09:43.070Z,11.69
2022-09-17T01:12:27.048Z,11.65
2022-09-17T01:15:06.979Z,11.74
2022-09-17T01:17:44.178Z,11.82
2022-09-17T01:20:41.863Z,11.89
2022-09-17T01:23:37.606Z,11.80
2022-09-17T01:26:28.100Z,11.82
2022-09-17T01:29:05.112Z,11.77
2022-09-17T01:31:42.015Z,11.74
2022-09-17T01:34:20.104Z,11.80
2022-09-17T01:37:03.258Z,11.76
2022-09-17T01:39:39.021Z,11.76
2022-09-17T01:42:18.623Z,11.68
2022-09-17T01:44:54.755Z,11.70
2022-09-17T01:47:28.103Z,11.63
2022-09-17T01:50:01.452Z,11.70
2022-09-17T01:52:32.561Z,11.73
2022-09-17T01:55:04.722Z,11.64
2022-09-17T01:57:37.286Z,11.65
2022-09-17T02:00:09.647Z,11.55
2022-09-17T02:02:46.354Z,11.47
2022-09-17T02:05:20.204Z,11.41
2022-09-17T02:07:53.468Z,11.42
2022-09-17T02:10:25.493Z,11.44
2022-09-17T02:12:59.785Z,11.53
2022-09-17T02:15:30.203Z,11.50
2022-09-17T02:18:04.809Z,11.50
2022-09-17T02:20:41.847Z,11.47
2022-09-17T02:23:15.411Z,11.49
2022-09-17T02:25:45.280Z,11.50
2022-09-17T02:28:17.306Z,11.39
2022-09-17T02:30:45.041Z,11.41
2022-09-17T02:33:15.952Z,11.43
2022-09-17T02:35:47.028Z,11.45
2022-09-17T02:38:14.606Z,11.43
2022-09-17T02:40:47.257Z,11.48
2022-09-17T02:43:23.181Z,11.38
2022-09-17T02:46:02.430Z,11.36
2022-09-17T02:48:50.090Z,11.14
2022-09-17T02:51:29.158Z,11.06
2022-09-17T02:54:06.733Z,11.04
2022-09-17T02:56:46.046Z,10.96
2022-09-17T02:59:20.824Z,10.98
2022-09-17T03:01:57.859Z,10.95
2022-09-17T03:04:29.285Z,10.95
2022-09-17T03:06:58.588Z,10.87
2022-09-17T03:09:26.141Z,10.85
2022-09-17T03:11:53.671Z,10.88
2022-09-17T03:14:21.272Z,10.83
2022-09-17T03:16:48.852Z,10.80
2022-09-17T03:19:16.453Z,10.69
2022-09-17T03:21:45.536Z,10.64
2022-09-17T03:24:13.427Z,10.63
2022-09-17T03:26:40.947Z,10.66
2022-09-17T03:29:08.460Z,10.67
2022-09-17T03:31:36.153Z,10.73
2022-09-17T03:34:03.771Z,10.65
2022-09-17T03:36:31.414Z,10.68
2022-09-17T03:39:00.605Z,10.66
2022-09-17T03:41:28.249Z,10.64
2022-09-17T03:43:55.772Z,10.69
2022-09-17T03:46:23.290Z,10.59
2022-09-17T03:48:50.941Z,10.61
2022-09-17T03:51:18.514Z,10.58
2022-09-17T03:53:46.022Z,10.57
2022-09-17T03:56:14.948Z,10.58
2022-09-17T03:58:42.470Z,10.59
2022-09-17T04:01:10.211Z,10.52
2022-09-17T04:03:37.889Z,10.41
2022-09-17T04:06:05.475Z,10.36
2022-09-17T04:08:33.816Z,10.39
2022-09-17T04:11:01.333Z,10.32
2022-09-17T04:13:30.192Z,10.30
2022-09-17T04:15:57.768Z,10.29
2022-09-17T04:18:25.408Z,10.40
2022-09-17T04:20:53.055Z,10.52
2022-09-17T04:23:21.075Z,10.52
2022-09-17T04:25:48.584Z,10.55
2022-09-17T04:28:16.773Z,10.62
2022-09-17T04:30:45.630Z,10.61
2022-09-17T04:33:13.174Z,10.58
2022-09-17T04:35:40.712Z,10.51
2022-09-17T04:38:08.255Z,10.54
2022-09-17T04:40:36.017Z,10.60
2022-09-17T04:43:04.086Z,10.58
2022-09-17T04:45:33.337Z,10.61
2022-09-17T04:48:02.812Z,10.58
2022-09-17T04:50:30.390Z,10.62
2022-09-17T04:52:58.632Z,10.53
2022-09-17T04:55:27.677Z,10.41
2022-09-17T04:57:55.545Z,10.55
2022-09-17T05:00:24.359Z,10.62
2022-09-17T05:02:53.429Z,10.59
2022-09-17T05:05:23.624Z,10.56
2022-09-17T05:07:51.288Z,10.70
2022-09-17T05:10:20.729Z,10.85
2022-09-17T05:12:49.720Z,10.71
2022-09-17T05:15:18.013Z,10.56
2022-09-17T05:17:45.783Z,10.56
2022-09-17T05:20:14.013Z,10.53
2022-09-17T05:22:44.743Z,10.50
2022-09-17T05:25:12.565Z,10.52
2022-09-17T05:27:40.607Z,10.59
2022-09-17T05:30:10.069Z,10.69
2022-09-17T05:32:38.970Z,10.64
2022-09-17T05:35:08.049Z,10.38
2022-09-17T05:37:35.615Z,10.43
2022-09-17T05:40:05.940Z,10.44
2022-09-17T05:42:33.656Z,10.45
2022-09-17T05:45:01.258Z,10.38
2022-09-17T05:47:28.801Z,10.34
2022-09-17T05:49:56.767Z,10.43
2022-09-17T05:52:28.003Z,10.59
2022-09-17T05:54:55.734Z,10.69
2022-09-17T05:57:24.779Z,10.79
2022-09-17T05:59:52.454Z,10.66
2022-09-17T06:02:20.115Z,10.48
2022-09-17T06:04:47.661Z,10.58
2022-09-17T06:07:15.249Z,10.66
2022-09-17T06:09:42.802Z,10.47
2022-09-17T06:12:10.334Z,10.48
2022-09-17T06:14:39.246Z,10.74
2022-09-17T06:17:06.752Z,10.78
2022-09-17T06:19:34.275Z,10.88
2022-09-17T06:22:02.113Z,10.92
2022-09-17T06:24:29.692Z,10.85
2022-09-17T06:26:57.220Z,10.79
2022-09-17T06:29:25.068Z,10.70
2022-09-17T06:31:54.055Z,10.61
2022-09-17T06:34:21.609Z,10.55
2022-09-17T06:36:49.661Z,10.75
2022-09-17T06:39:17.434Z,10.60
2022-09-17T06:41:46.028Z,10.45
2022-09-17T06:44:13.713Z,10.65
2022-09-17T06:46:41.465Z,10.47
2022-09-17T06:49:11.596Z,10.58
2022-09-17T06:51:39.103Z,10.50
2022-09-17T06:54:06.754Z,10.74
2022-09-17T06:56:34.542Z,10.92
2022-09-17T06:59:02.580Z,10.73
2022-09-17T07:01:30.219Z,10.96
2022-09-17T07:03:58.041Z,10.99
2022-09-17T07:06:26.911Z,11.19
2022-09-17T07:08:54.474Z,11.02
2022-09-17T07:11:22.675Z,10.83
2022-09-17T07:13:50.227Z,10.84
2022-09-17T07:16:17.842Z,11.04
2022-09-17T07:18:45.369Z,11.09
2022-09-17T07:21:12.906Z,11.30
2022-09-17T07:23:41.971Z,11.52
2022-09-17T07:26:14.683Z,11.66
2022-09-17T07:28:43.613Z,11.66
2022-09-17T07:31:16.464Z,11.39
2022-09-17T07:33:45.074Z,11.48
2022-09-17T07:36:15.074Z,11.55
2022-09-17T07:38:43.982Z,11.74
2022-09-17T07:41:13.503Z,11.90
2022-09-17T07:43:42.133Z,11.92
2022-09-17T07:46:15.096Z,11.91
2022-09-17T07:48:42.811Z,11.82
2022-09-17T07:51:16.229Z,12.13
2022-09-17T07:53:45.369Z,12.30
2022-09-17T07:56:12.975Z,12.58
2022-09-17T07:58:40.562Z,12.88
2022-09-17T08:01:10.030Z,12.77
2022-09-17T08:03:38.572Z,12.20
2022-09-17T08:06:08.165Z,12.26
2022-09-17T08:08:36.948Z,12.45
2022-09-17T08:11:07.632Z,12.23
2022-09-17T08:13:35.288Z,12.27
2022-09-17T08:16:05.314Z,12.16
2022-09-17T08:18:33.196Z,12.40
2022-09-17T08:21:01.823Z,12.32
2022-09-17T08:23:30.927Z,12.20
2022-09-17T08:26:00.282Z,12.32
2022-09-17T08:28:32.231Z,12.57
2022-09-17T08:31:02.804Z,12.74
2022-09-17T08:33:32.295Z,12.85
2022-09-17T08:36:00.485Z,12.80
2022-09-17T08:38:28.737Z,12.91
2022-09-17T08:41:09.379Z,12.90
2022-09-17T08:43:43.433Z,12.30
2022-09-17T08:46:12.264Z,12.52
2022-09-17T08:48:43.179Z,12.46
2022-09-17T08:51:22.312Z,12.51
2022-09-17T08:53:59.748Z,12.45
2022-09-17T08:56:28.072Z,12.24
2022-09-17T08:59:12.135Z,12.05
2022-09-17T09:01:46.438Z,12.02
2022-09-17T09:04:34.180Z,12.07
2022-09-17T09:07:05.474Z,12.36
2022-09-17T09:09:38.540Z,12.51
2022-09-17T09:12:13.065Z,12.60
2022-09-17T09:14:51.249Z,12.49
2022-09-17T09:17:23.471Z,12.62
2022-09-17T09:19:52.885Z,12.38
2022-09-17T09:22:36.809Z,12.48
2022-09-17T09:25:16.797Z,12.48
2022-09-17T09:27:51.608Z,12.44
2022-09-17T09:30:23.656Z,12.50
2022-09-17T09:32:58.759Z,12.47
2022-09-17T09:35:28.364Z,12.62
2022-09-17T09:38:03.006Z,12.65
2022-09-17T09:40:38.892Z,12.86
2022-09-17T09:43:16.676Z,12.98
2022-09-17T09:46:10.670Z,13.21
2022-09-17T09:48:44.260Z,13.18
2022-09-17T09:51:25.405Z,13.45
2022-09-17T09:54:08.318Z,13.49
2022-09-17T09:57:03.884Z,13.62
2022-09-17T09:59:31.459Z,13.79
2022-09-17T10:02:00.420Z,13.64
2022-09-17T10:04:30.183Z,13.54
2022-09-17T10:07:03.339Z,13.49
2022-09-17T10:09:32.701Z,13.61
2022-09-17T10:12:06.143Z,13.59
2022-09-17T10:14:34.223Z,13.88
2022-09-17T10:17:21.614Z,14.21
2022-09-17T10:20:18.300Z,14.38
2022-09-17T10:22:49.923Z,14.45
2022-09-17T10:25:28.541Z,14.60
2022-09-17T10:27:57.346Z,14.55
2022-09-17T10:30:25.905Z,14.61
2022-09-17T10:33:19.139Z,14.80
2022-09-17T10:35:58.123Z,14.46
2022-09-17T10:38:37.769Z,14.55
2022-09-17T10:41:14.810Z,14.73
2022-09-17T10:43:42.821Z,14.44
2022-09-17T10:46:15.695Z,14.63
2022-09-17T10:48:50.340Z,14.96
2022-09-17T10:51:24.051Z,15.21
2022-09-17T10:54:20.226Z,15.58
2022-09-17T10:56:52.039Z,15.94
2022-09-17T10:59:46.457Z,16.51
2022-09-17T11:02:35.522Z,16.94
2022-09-17T11:05:21.043Z,17.50
2022-09-17T11:07:54.380Z,16.78
2022-09-17T11:10:30.863Z,15.91
2022-09-17T11:13:11.489Z,15.56
2022-09-17T11:15:55.009Z,15.10
2022-09-17T11:18:36.824Z,14.97
2022-09-17T11:21:28.670Z,15.53
2022-09-17T11:24:26.709Z,16.02
2022-09-17T11:27:04.486Z,16.00
2022-09-17T11:29:49.204Z,15.91
2022-09-17T11:32:35.505Z,15.37
2022-09-17T11:35:09.605Z,14.77
2022-09-17T11:37:48.915Z,14.23
2022-09-17T11:40:22.078Z,14.13
2022-09-17T11:42:55.078Z,14.18
2022-09-17T11:45:28.077Z,14.44
2022-09-17T11:48:00.937Z,14.65
2022-09-17T11:50:33.415Z,14.73
2022-09-17T11:53:07.476Z,14.68
2022-09-17T11:55:43.581Z,14.73
2022-09-17T11:58:16.499Z,14.81
2022-09-17T12:00:51.301Z,14.99
2022-09-17T12:03:25.709Z,14.97
2022-09-17T12:05:57.354Z,14.98
2022-09-17T12:08:34.648Z,14.84
2022-09-17T12:11:10.764Z,14.45
2022-09-17T12:13:44.854Z,13.88
2022-09-17T12:16:17.689Z,13.43
2022-09-17T12:18:51.732Z,13.04
2022-09-17T12:21:28.629Z,12.92
2022-09-17T12:24:01.091Z,12.88
2022-09-17T12:26:40.473Z,13.10
2022-09-17T12:29:18.621Z,13.51
2022-09-17T12:31:53.990Z,13.86
2022-09-17T12:34:43.901Z,14.15
2022-09-17T12:37:18.689Z,14.19
2022-09-17T12:40:11.620Z,14.54
2022-09-17T12:42:52.432Z,14.85
2022-09-17T12:45:34.948Z,14.95
2022-09-17T12:48:43.970Z,15.17
2022-09-17T12:51:27.701Z,15.48
2022-09-17T12:53:58.486Z,15.72
2022-09-17T12:56:39.867Z,15.56
2022-09-17T12:59:11.359Z,15.52
2022-09-17T13:01:49.314Z,15.20
2022-09-17T13:04:56.873Z,15.63
2022-09-17T13:07:56.460Z,16.57
2022-09-17T13:11:11.682Z,16.06
2022-09-17T13:13:47.625Z,16.36
2022-09-17T13:16:20.709Z,16.80
2022-09-17T13:19:16.558Z,16.92
2022-09-17T13:21:54.388Z,17.23
2022-09-17T13:24:24.999Z,17.94
2022-09-17T13:26:54.452Z,18.49
2022-09-17T13:30:07.696Z,18.39
2022-09-17T13:32:48.126Z,18.86
2022-09-17T13:35:52.183Z,18.91
2022-09-17T13:38:23.686Z,19.45
2022-09-17T13:40:52.500Z,20.45
2022-09-17T13:43:28.861Z,22.22
2022-09-17T13:46:18.434Z,19.03
2022-09-17T13:48:54.426Z,18.82
2022-09-17T13:51:58.600Z,18.28
2022-09-17T13:54:38.688Z,18.47
2022-09-17T13:57:10.805Z,18.46
2022-09-17T13:59:39.151Z,18.75
2022-09-17T14:02:31.006Z,19.16
2022-09-17T14:05:31.986Z,17.70
2022-09-17T14:08:30.868Z,18.81
2022-09-17T14:11:05.730Z,19.19
2022-09-17T14:13:44.897Z,19.19
2022-09-17T14:16:50.240Z,19.96
2022-09-17T14:19:34.062Z,20.99
2022-09-17T14:22:14.229Z,21.62
2022-09-17T14:24:48.880Z,21.50
2022-09-17T14:27:24.037Z,20.66
2022-09-17T14:30:03.037Z,20.14
2022-09-17T14:32:35.004Z,19.17
2022-09-17T14:35:04.941Z,18.54
2022-09-17T14:37:34.696Z,17.75
2022-09-17T14:40:02.507Z,17.42
2022-09-17T14:42:36.627Z,16.80
2022-09-17T14:45:09.272Z,16.36
2022-09-17T14:47:36.889Z,16.74
2022-09-17T14:50:24.211Z,18.00
2022-09-17T14:52:54.388Z,19.54
2022-09-17T14:55:25.193Z,20.30
2022-09-17T14:57:54.299Z,21.17
2022-09-17T15:00:24.769Z,21.29
2022-09-17T15:02:55.623Z,20.81
2022-09-17T15:05:27.152Z,20.80
2022-09-17T15:08:09.050Z,20.02
2022-09-17T15:10:40.272Z,19.67
2022-09-17T15:13:13.667Z,18.63
2022-09-17T15:15:41.043Z,19.48
2022-09-17T15:18:08.673Z,19.31
2022-09-17T15:20:36.372Z,18.51
2022-09-17T15:23:14.197Z,17.58
2022-09-17T15:25:43.594Z,17.05
2022-09-17T15:28:30.793Z,16.84
2022-09-17T15:30:58.454Z,16.40
2022-09-17T15:33:27.491Z,16.26
2022-09-17T15:36:08.250Z,16.09
2022-09-17T15:38:39.098Z,16.60
2022-09-17T15:41:23.444Z,17.54
2022-09-17T15:43:51.092Z,17.88
2022-09-17T15:46:26.447Z,18.67
2022-09-17T15:48:54.556Z,19.55
2022-09-17T15:51:27.405Z,19.67
2022-09-17T15:53:59.309Z,19.77
2022-09-17T15:56:30.190Z,20.16
2022-09-17T15:59:01.572Z,20.46
2022-09-17T16:01:53.628Z,19.84
2022-09-17T16:04:30.192Z,19.40
2022-09-17T16:07:16.620Z,18.98
2022-09-17T16:09:48.732Z,18.11
2022-09-17T16:12:18.675Z,17.84
2022-09-17T16:14:51.251Z,17.39
2022-09-17T16:17:29.184Z,17.00
2022-09-17T16:19:57.878Z,16.69
2022-09-17T16:22:29.332Z,15.84
2022-09-17T16:24:58.249Z,15.44
2022-09-17T16:27:29.983Z,15.34
2022-09-17T16:30:03.399Z,14.87
2022-09-17T16:32:30.810Z,14.75
2022-09-17T16:34:58.537Z,14.39
2022-09-17T16:37:26.483Z,14.19
2022-09-17T16:39:54.093Z,13.93
2022-09-17T16:42:23.003Z,13.74
2022-09-17T16:44:50.527Z,13.89
2022-09-17T16:47:18.139Z,13.92
2022-09-17T16:49:45.671Z,13.92
2022-09-17T16:52:13.178Z,13.81
2022-09-17T16:54:40.716Z,13.70
2022-09-17T16:57:08.246Z,13.67
2022-09-17T16:59:37.126Z,13.67
2022-09-17T17:02:04.890Z,13.75
2022-09-17T17:04:32.404Z,13.60
2022-09-17T17:07:00.626Z,13.52
2022-09-17T17:09:28.154Z,13.45
2022-09-17T17:11:56.005Z,13.47
2022-09-17T17:14:23.526Z,13.44
2022-09-17T17:16:52.408Z,13.40
2022-09-17T17:19:19.938Z,13.48
2022-09-17T17:21:50.364Z,13.54
2022-09-17T17:24:18.364Z,13.50
2022-09-17T17:26:47.676Z,13.41
2022-09-17T17:29:16.654Z,13.28
2022-09-17T17:31:44.281Z,13.39
2022-09-17T17:34:13.200Z,13.44
2022-09-17T17:36:40.766Z,13.42
2022-09-17T17:39:09.351Z,13.40
2022-09-17T17:41:36.927Z,13.35
2022-09-17T17:44:04.454Z,13.26
2022-09-17T17:46:32.100Z,13.30
2022-09-17T17:48:59.922Z,13.25
2022-09-17T17:51:28.790Z,13.21
2022-09-17T17:53:56.316Z,13.28
2022-09-17T17:56:24.168Z,13.36
2022-09-17T17:58:55.535Z,13.39
2022-09-17T18:01:27.089Z,13.41
2022-09-17T18:03:58.124Z,13.46
2022-09-17T18:06:26.640Z,13.49
2022-09-17T18:08:56.073Z,13.45
2022-09-17T18:11:24.649Z,13.41
2022-09-17T18:13:53.714Z,13.50
2022-09-17T18:16:22.367Z,13.34
2022-09-17T18:18:50.057Z,13.43
2022-09-17T18:21:21.767Z,13.48
2022-09-17T18:23:50.577Z,13.57
2022-09-17T18:26:21.230Z,13.59
2022-09-17T18:28:48.917Z,13.42
2022-09-17T18:31:22.700Z,12.88
2022-09-17T18:33:51.005Z,12.65
2022-09-17T18:36:18.496Z,12.40
2022-09-17T18:38:48.374Z,12.26
2022-09-17T18:41:15.933Z,12.03
2022-09-17T18:43:45.187Z,11.82
2022-09-17T18:46:12.773Z,11.53
2022-09-17T18:48:40.653Z,11.45
2022-09-17T18:51:13.237Z,11.26
2022-09-17T18:53:41.873Z,11.22
2022-09-17T18:56:16.690Z,11.00
2022-09-17T18:58:46.030Z,10.88
2022-09-17T19:01:14.034Z,10.82
2022-09-17T19:03:42.193Z,10.81
2022-09-17T19:06:12.338Z,10.72
2022-09-17T19:08:40.937Z,10.81
2022-09-17T19:11:08.808Z,10.84
2022-09-17T19:13:38.525Z,10.89
2022-09-17T19:16:08.810Z,10.89
2022-09-17T19:18:36.980Z,10.92
2022-09-17T19:21:06.710Z,10.92
2022-09-17T19:23:34.464Z,10.97
2022-09-17T19:26:06.814Z,10.96
2022-09-17T19:28:35.404Z,10.94
2022-09-17T19:31:05.127Z,10.90
2022-09-17T19:33:34.044Z,10.87
2022-09-17T19:36:02.018Z,10.88
2022-09-17T19:38:30.132Z,10.87
2022-09-17T19:40:58.921Z,10.84
2022-09-17T19:43:26.842Z,10.75
2022-09-17T19:46:01.166Z,10.76
2022-09-17T19:48:28.932Z,10.71
2022-09-17T19:50:58.301Z,10.69
2022-09-17T19:53:26.206Z,10.69
2022-09-17T19:55:53.721Z,10.69
2022-09-17T19:58:21.465Z,10.68
2022-09-17T20:00:49.081Z,10.71
2022-09-17T20:03:16.665Z,10.74
2022-09-17T20:05:44.177Z,10.80
2022-09-17T20:08:13.058Z,10.87
2022-09-17T20:10:40.677Z,10.91
2022-09-17T20:13:08.233Z,10.94
2022-09-17T20:15:36.295Z,10.96
2022-09-17T20:18:03.942Z,10.99
2022-09-17T20:20:31.516Z,11.02
2022-09-17T20:22:59.023Z,11.05
2022-09-17T20:25:28.895Z,11.12
2022-09-17T20:27:56.435Z,11.14
2022-09-17T20:30:24.004Z,11.13
2022-09-17T20:32:51.520Z,11.13
2022-09-17T20:35:19.061Z,11.15
2022-09-17T20:40:35.449Z,11.19
2022-09-17T20:43:02.994Z,11.22
2022-09-17T20:45:30.501Z,11.23
2022-09-17T20:47:58.092Z,11.21
2022-09-17T20:50:25.631Z,11.25
2022-09-17T20:52:53.132Z,11.22
2022-09-17T20:55:21.390Z,11.20
2022-09-17T20:57:53.476Z,11.23
2022-09-17T21:00:21.489Z,11.21
2022-09-17T21:02:51.685Z,11.20
2022-09-17T21:05:19.264Z,11.23
2022-09-17T21:07:46.801Z,11.17
2022-09-17T21:10:14.444Z,11.17
2022-09-17T21:12:42.241Z,11.11
2022-09-17T21:15:11.808Z,11.19
2022-09-17T21:17:40.595Z,11.11
2022-09-17T21:20:09.017Z,11.14
2022-09-17T21:22:36.520Z,11.11
2022-09-17T21:25:04.212Z,11.09
2022-09-17T21:27:32.423Z,11.05
2022-09-17T21:30:00.034Z,11.03
2022-09-17T21:32:28.930Z,11.02
2022-09-17T21:34:56.732Z,10.93
2022-09-17T21:37:24.963Z,10.95
2022-09-17T21:39:52.809Z,10.94
2022-09-17T21:42:20.474Z,10.91
2022-09-17T21:44:47.983Z,10.90
2022-09-17T21:47:15.507Z,10.91
2022-09-17T21:49:44.672Z,10.92
2022-09-17T21:52:12.184Z,10.92
2022-09-17T21:54:39.728Z,10.95
2022-09-17T21:57:07.212Z,10.89
2022-09-17T21:59:34.708Z,10.87
2022-09-17T22:02:02.300Z,10.85
2022-09-17T22:04:29.896Z,10.85
2022-09-17T22:06:59.171Z,10.86
2022-09-17T22:09:26.787Z,10.83
2022-09-17T22:11:54.758Z,10.83
2022-09-17T22:14:24.250Z,10.87
2022-09-17T22:16:53.447Z,10.92
2022-09-17T22:19:22.919Z,10.89
2022-09-17T22:21:52.154Z,10.94
2022-09-17T22:24:22.590Z,10.96
2022-09-17T22:26:56.977Z,10.95
2022-09-17T22:29:26.320Z,10.94
2022-09-17T22:31:54.008Z,10.97
2022-09-17T22:34:23.189Z,10.98
2022-09-17T22:36:50.891Z,11.01
2022-09-17T22:39:22.525Z,11.05
2022-09-17T22:41:50.441Z,11.05
2022-09-17T22:44:19.627Z,11.10
2022-09-17T22:46:49.501Z,11.09
2022-09-17T22:49:17.249Z,11.17
2022-09-17T22:51:46.532Z,11.19
2022-09-17T22:54:15.729Z,11.14
2022-09-17T22:56:45.210Z,11.13
2022-09-17T22:59:12.776Z,11.09
2022-09-17T23:01:41.632Z,11.11
2022-09-17T23:04:09.340Z,11.14
2022-09-17T23:06:38.888Z,11.13
2022-09-17T23:09:07.323Z,11.12
2022-09-17T23:11:37.292Z,11.09
2022-09-17T23:14:09.449Z,11.07
2022-09-17T23:16:39.606Z,11.09
2022-09-17T23:19:07.261Z,11.11
2022-09-17T23:21:34.977Z,11.06
2022-09-17T23:24:03.504Z,11.09
2022-09-17T23:26:31.578Z,11.08
2022-09-17T23:29:04.360Z,11.09
2022-09-17T23:31:35.519Z,11.06
2022-09-17T23:34:03.958Z,10.96
2022-09-17T23:36:33.186Z,11.09
2022-09-17T23:39:02.122Z,11.10
2022-09-17T23:41:32.156Z,11.06
2022-09-17T23:44:02.073Z,11.12
2022-09-17T23:46:32.133Z,11.15
2022-09-17T23:49:01.322Z,11.18
2022-09-17T23:51:30.873Z,11.12
2022-09-17T23:53:59.334Z,11.04
2022-09-17T23:56:28.384Z,11.07
2022-09-17T23:58:57.506Z,11.04
